sensor_id;sensor_type;location;lat;lon;timestamp;P1;durP1;ratioP1;P2;durP2;ratioP2
77040;SDS011;65974;42.664;23.264;2023-04-25T00:00:28;6.15;;;4.05;;
77040;SDS011;65974;42.664;23.264;2023-04-25T00:02:54;8.27;;;3.45;;
77040;SDS011;65974;42.664;23.264;2023-04-25T00:05:21;6.47;;;3.22;;
77040;SDS011;65974;42.664;23.264;2023-04-25T00:07:48;6.03;;;3.40;;
77040;SDS011;65974;42.664;23.264;2023-04-25T00:10:15;5.88;;;4.55;;
77040;SDS011;65974;42.664;23.264;2023-04-25T00:12:40;4.53;;;4.13;;
77040;SDS011;65974;42.664;23.264;2023-04-25T00:15:06;5.25;;;4.28;;
77040;SDS011;65974;42.664;23.264;2023-04-25T00:17:33;4.57;;;3.50;;
77040;SDS011;65974;42.664;23.264;2023-04-25T00:20:00;4.97;;;4.28;;
77040;SDS011;65974;42.664;23.264;2023-04-25T00:22:25;4.85;;;3.90;;
77040;SDS011;65974;42.664;23.264;2023-04-25T00:24:51;5.82;;;3.85;;
77040;SDS011;65974;42.664;23.264;2023-04-25T00:27:18;5.35;;;3.58;;
77040;SDS011;65974;42.664;23.264;2023-04-25T00:29:43;7.97;;;3.40;;
77040;SDS011;65974;42.664;23.264;2023-04-25T00:32:09;4.20;;;3.40;;
77040;SDS011;65974;42.664;23.264;2023-04-25T00:34:35;4.05;;;3.40;;
77040;SDS011;65974;42.664;23.264;2023-04-25T00:37:01;4.60;;;3.50;;
77040;SDS011;65974;42.664;23.264;2023-04-25T00:39:29;6.07;;;3.92;;
77040;SDS011;65974;42.664;23.264;2023-04-25T00:41:55;4.13;;;3.20;;
77040;SDS011;65974;42.664;23.264;2023-04-25T00:44:20;5.50;;;3.95;;
77040;SDS011;65974;42.664;23.264;2023-04-25T00:46:47;4.38;;;3.42;;
77040;SDS011;65974;42.664;23.264;2023-04-25T00:49:14;5.78;;;3.22;;
77040;SDS011;65974;42.664;23.264;2023-04-25T00:51:41;3.25;;;2.35;;
77040;SDS011;65974;42.664;23.264;2023-04-25T00:54:08;2.95;;;2.17;;
77040;SDS011;65974;42.664;23.264;2023-04-25T00:56:35;3.60;;;2.38;;
77040;SDS011;65974;42.664;23.264;2023-04-25T00:59:00;3.20;;;2.47;;
77040;SDS011;65974;42.664;23.264;2023-04-25T01:01:26;4.28;;;2.78;;
77040;SDS011;65974;42.664;23.264;2023-04-25T01:03:52;3.65;;;3.30;;
77040;SDS011;65974;42.664;23.264;2023-04-25T01:06:19;3.30;;;2.15;;
77040;SDS011;65974;42.664;23.264;2023-04-25T01:08:44;5.43;;;3.60;;
77040;SDS011;65974;42.664;23.264;2023-04-25T01:11:10;4.53;;;3.42;;
77040;SDS011;65974;42.664;23.264;2023-04-25T01:13:35;4.85;;;3.90;;
77040;SDS011;65974;42.664;23.264;2023-04-25T01:16:01;6.00;;;3.00;;
77040;SDS011;65974;42.664;23.264;2023-04-25T01:18:28;5.63;;;4.05;;
77040;SDS011;65974;42.664;23.264;2023-04-25T01:20:55;5.82;;;4.15;;
77040;SDS011;65974;42.664;23.264;2023-04-25T01:25:48;7.05;;;4.82;;
77040;SDS011;65974;42.664;23.264;2023-04-25T01:28:15;6.43;;;4.63;;
77040;SDS011;65974;42.664;23.264;2023-04-25T01:30:41;6.07;;;5.28;;
77040;SDS011;65974;42.664;23.264;2023-04-25T01:33:07;7.68;;;5.30;;
77040;SDS011;65974;42.664;23.264;2023-04-25T01:35:33;9.45;;;6.95;;
77040;SDS011;65974;42.664;23.264;2023-04-25T01:37:59;7.53;;;4.80;;
77040;SDS011;65974;42.664;23.264;2023-04-25T01:40:25;6.72;;;5.13;;
77040;SDS011;65974;42.664;23.264;2023-04-25T01:42:52;9.30;;;6.85;;
77040;SDS011;65974;42.664;23.264;2023-04-25T01:45:17;9.25;;;5.72;;
77040;SDS011;65974;42.664;23.264;2023-04-25T01:47:44;8.82;;;5.63;;
77040;SDS011;65974;42.664;23.264;2023-04-25T01:50:14;8.50;;;5.45;;
77040;SDS011;65974;42.664;23.264;2023-04-25T01:52:40;10.40;;;7.03;;
77040;SDS011;65974;42.664;23.264;2023-04-25T01:55:05;10.07;;;6.28;;
77040;SDS011;65974;42.664;23.264;2023-04-25T01:57:31;9.35;;;6.80;;
77040;SDS011;65974;42.664;23.264;2023-04-25T01:59:58;10.00;;;6.78;;
77040;SDS011;65974;42.664;23.264;2023-04-25T02:02:26;11.35;;;7.25;;
77040;SDS011;65974;42.664;23.264;2023-04-25T02:04:51;9.85;;;6.43;;
77040;SDS011;65974;42.664;23.264;2023-04-25T02:07:17;11.75;;;5.55;;
77040;SDS011;65974;42.664;23.264;2023-04-25T02:09:42;8.82;;;5.53;;
77040;SDS011;65974;42.664;23.264;2023-04-25T02:12:09;5.75;;;4.50;;
77040;SDS011;65974;42.664;23.264;2023-04-25T02:14:35;9.48;;;6.35;;
77040;SDS011;65974;42.664;23.264;2023-04-25T02:17:01;6.93;;;5.45;;
77040;SDS011;65974;42.664;23.264;2023-04-25T02:19:26;7.85;;;5.13;;
77040;SDS011;65974;42.664;23.264;2023-04-25T02:21:51;8.45;;;5.15;;
77040;SDS011;65974;42.664;23.264;2023-04-25T02:24:17;6.95;;;5.80;;
77040;SDS011;65974;42.664;23.264;2023-04-25T02:26:42;8.18;;;4.82;;
77040;SDS011;65974;42.664;23.264;2023-04-25T02:29:09;7.10;;;4.43;;
77040;SDS011;65974;42.664;23.264;2023-04-25T02:31:35;7.65;;;5.25;;
77040;SDS011;65974;42.664;23.264;2023-04-25T02:34:00;8.63;;;6.10;;
77040;SDS011;65974;42.664;23.264;2023-04-25T02:36:25;10.82;;;6.88;;
77040;SDS011;65974;42.664;23.264;2023-04-25T02:38:51;10.13;;;6.93;;
77040;SDS011;65974;42.664;23.264;2023-04-25T02:41:17;7.13;;;5.43;;
77040;SDS011;65974;42.664;23.264;2023-04-25T02:43:42;8.95;;;5.63;;
77040;SDS011;65974;42.664;23.264;2023-04-25T02:46:08;10.18;;;6.82;;
77040;SDS011;65974;42.664;23.264;2023-04-25T02:48:33;13.75;;;9.88;;
77040;SDS011;65974;42.664;23.264;2023-04-25T02:50:59;22.25;;;11.40;;
77040;SDS011;65974;42.664;23.264;2023-04-25T02:53:24;15.50;;;9.05;;
77040;SDS011;65974;42.664;23.264;2023-04-25T02:55:50;13.38;;;8.65;;
77040;SDS011;65974;42.664;23.264;2023-04-25T02:58:17;16.92;;;10.23;;
77040;SDS011;65974;42.664;23.264;2023-04-25T03:00:42;15.05;;;9.25;;
77040;SDS011;65974;42.664;23.264;2023-04-25T03:03:08;17.23;;;10.10;;
77040;SDS011;65974;42.664;23.264;2023-04-25T03:05:33;14.68;;;8.27;;
77040;SDS011;65974;42.664;23.264;2023-04-25T03:07:59;16.23;;;9.65;;
77040;SDS011;65974;42.664;23.264;2023-04-25T03:10:24;14.90;;;10.00;;
77040;SDS011;65974;42.664;23.264;2023-04-25T03:12:50;12.50;;;7.97;;
77040;SDS011;65974;42.664;23.264;2023-04-25T03:15:15;16.90;;;10.57;;
77040;SDS011;65974;42.664;23.264;2023-04-25T03:17:41;14.88;;;11.27;;
77040;SDS011;65974;42.664;23.264;2023-04-25T03:20:07;14.98;;;10.35;;
77040;SDS011;65974;42.664;23.264;2023-04-25T03:22:33;16.10;;;9.13;;
77040;SDS011;65974;42.664;23.264;2023-04-25T03:24:58;15.82;;;9.05;;
77040;SDS011;65974;42.664;23.264;2023-04-25T03:27:24;16.00;;;10.77;;
77040;SDS011;65974;42.664;23.264;2023-04-25T03:29:49;12.63;;;9.15;;
77040;SDS011;65974;42.664;23.264;2023-04-25T03:32:15;14.60;;;8.65;;
77040;SDS011;65974;42.664;23.264;2023-04-25T03:34:40;13.25;;;9.85;;
77040;SDS011;65974;42.664;23.264;2023-04-25T03:37:06;13.48;;;9.30;;
77040;SDS011;65974;42.664;23.264;2023-04-25T03:39:31;16.20;;;10.70;;
77040;SDS011;65974;42.664;23.264;2023-04-25T03:41:57;14.55;;;9.38;;
77040;SDS011;65974;42.664;23.264;2023-04-25T03:44:22;13.02;;;7.90;;
77040;SDS011;65974;42.664;23.264;2023-04-25T03:46:49;13.55;;;8.38;;
77040;SDS011;65974;42.664;23.264;2023-04-25T03:49:14;16.65;;;11.18;;
77040;SDS011;65974;42.664;23.264;2023-04-25T03:51:40;17.20;;;11.13;;
77040;SDS011;65974;42.664;23.264;2023-04-25T03:54:05;12.95;;;8.27;;
77040;SDS011;65974;42.664;23.264;2023-04-25T03:56:32;14.40;;;8.38;;
77040;SDS011;65974;42.664;23.264;2023-04-25T03:58:57;16.73;;;9.32;;
77040;SDS011;65974;42.664;23.264;2023-04-25T04:01:23;12.60;;;8.48;;
77040;SDS011;65974;42.664;23.264;2023-04-25T04:03:48;15.98;;;9.50;;
77040;SDS011;65974;42.664;23.264;2023-04-25T04:06:13;14.88;;;9.25;;
77040;SDS011;65974;42.664;23.264;2023-04-25T04:08:39;11.82;;;8.68;;
77040;SDS011;65974;42.664;23.264;2023-04-25T04:11:05;10.35;;;7.13;;
77040;SDS011;65974;42.664;23.264;2023-04-25T04:13:31;11.63;;;7.50;;
77040;SDS011;65974;42.664;23.264;2023-04-25T04:15:56;13.60;;;8.70;;
77040;SDS011;65974;42.664;23.264;2023-04-25T04:18:22;11.32;;;8.38;;
77040;SDS011;65974;42.664;23.264;2023-04-25T04:20:48;12.30;;;8.30;;
77040;SDS011;65974;42.664;23.264;2023-04-25T04:23:13;13.77;;;9.60;;
77040;SDS011;65974;42.664;23.264;2023-04-25T04:25:39;13.05;;;8.40;;
77040;SDS011;65974;42.664;23.264;2023-04-25T04:28:05;10.30;;;7.15;;
77040;SDS011;65974;42.664;23.264;2023-04-25T04:30:32;13.82;;;9.18;;
77040;SDS011;65974;42.664;23.264;2023-04-25T04:32:58;7.45;;;5.50;;
77040;SDS011;65974;42.664;23.264;2023-04-25T04:35:25;12.57;;;9.13;;
77040;SDS011;65974;42.664;23.264;2023-04-25T04:37:51;10.45;;;9.18;;
77040;SDS011;65974;42.664;23.264;2023-04-25T04:40:17;11.15;;;8.23;;
77040;SDS011;65974;42.664;23.264;2023-04-25T04:42:45;13.82;;;9.45;;
77040;SDS011;65974;42.664;23.264;2023-04-25T04:45:11;10.48;;;7.63;;
77040;SDS011;65974;42.664;23.264;2023-04-25T04:47:37;10.55;;;7.50;;
77040;SDS011;65974;42.664;23.264;2023-04-25T04:50:04;12.90;;;7.70;;
77040;SDS011;65974;42.664;23.264;2023-04-25T04:52:34;12.13;;;7.43;;
77040;SDS011;65974;42.664;23.264;2023-04-25T04:55:00;10.43;;;7.13;;
77040;SDS011;65974;42.664;23.264;2023-04-25T04:57:27;11.00;;;6.78;;
77040;SDS011;65974;42.664;23.264;2023-04-25T04:59:53;7.05;;;5.13;;
77040;SDS011;65974;42.664;23.264;2023-04-25T05:02:18;12.38;;;7.53;;
77040;SDS011;65974;42.664;23.264;2023-04-25T05:04:44;10.70;;;8.15;;
77040;SDS011;65974;42.664;23.264;2023-04-25T05:07:10;12.18;;;7.45;;
77040;SDS011;65974;42.664;23.264;2023-04-25T05:09:35;13.27;;;8.57;;
77040;SDS011;65974;42.664;23.264;2023-04-25T05:12:00;10.55;;;8.60;;
77040;SDS011;65974;42.664;23.264;2023-04-25T05:14:26;10.27;;;8.07;;
77040;SDS011;65974;42.664;23.264;2023-04-25T05:16:51;10.93;;;8.43;;
77040;SDS011;65974;42.664;23.264;2023-04-25T05:19:17;14.00;;;8.98;;
77040;SDS011;65974;42.664;23.264;2023-04-25T05:21:42;11.25;;;8.93;;
77040;SDS011;65974;42.664;23.264;2023-04-25T05:24:08;12.57;;;8.18;;
77040;SDS011;65974;42.664;23.264;2023-04-25T05:26:34;13.02;;;8.27;;
77040;SDS011;65974;42.664;23.264;2023-04-25T05:29:00;10.45;;;6.68;;
77040;SDS011;65974;42.664;23.264;2023-04-25T05:31:25;12.85;;;9.25;;
77040;SDS011;65974;42.664;23.264;2023-04-25T05:33:51;10.95;;;7.50;;
77040;SDS011;65974;42.664;23.264;2023-04-25T05:36:20;11.52;;;8.48;;
77040;SDS011;65974;42.664;23.264;2023-04-25T05:38:46;15.15;;;9.60;;
77040;SDS011;65974;42.664;23.264;2023-04-25T05:41:11;10.93;;;8.43;;
77040;SDS011;65974;42.664;23.264;2023-04-25T05:43:40;9.65;;;5.93;;
77040;SDS011;65974;42.664;23.264;2023-04-25T05:46:10;11.80;;;8.25;;
77040;SDS011;65974;42.664;23.264;2023-04-25T05:48:37;11.65;;;8.73;;
77040;SDS011;65974;42.664;23.264;2023-04-25T05:51:02;14.23;;;10.48;;
77040;SDS011;65974;42.664;23.264;2023-04-25T05:53:28;14.02;;;9.73;;
77040;SDS011;65974;42.664;23.264;2023-04-25T05:55:53;12.20;;;9.60;;
77040;SDS011;65974;42.664;23.264;2023-04-25T05:58:19;13.88;;;10.13;;
77040;SDS011;65974;42.664;23.264;2023-04-25T06:00:44;13.63;;;10.35;;
77040;SDS011;65974;42.664;23.264;2023-04-25T06:03:11;13.40;;;10.15;;
77040;SDS011;65974;42.664;23.264;2023-04-25T06:05:38;13.82;;;10.15;;
77040;SDS011;65974;42.664;23.264;2023-04-25T06:08:04;14.90;;;10.10;;
77040;SDS011;65974;42.664;23.264;2023-04-25T06:10:29;16.83;;;12.65;;
77040;SDS011;65974;42.664;23.264;2023-04-25T06:12:55;16.40;;;10.27;;
77040;SDS011;65974;42.664;23.264;2023-04-25T06:15:20;14.25;;;10.63;;
77040;SDS011;65974;42.664;23.264;2023-04-25T06:17:46;16.88;;;10.55;;
77040;SDS011;65974;42.664;23.264;2023-04-25T06:20:11;16.42;;;10.70;;
77040;SDS011;65974;42.664;23.264;2023-04-25T06:22:37;15.65;;;10.50;;
77040;SDS011;65974;42.664;23.264;2023-04-25T06:25:02;14.68;;;9.20;;
77040;SDS011;65974;42.664;23.264;2023-04-25T06:27:29;13.40;;;11.07;;
77040;SDS011;65974;42.664;23.264;2023-04-25T06:29:55;14.88;;;10.68;;
77040;SDS011;65974;42.664;23.264;2023-04-25T06:32:20;17.17;;;10.35;;
77040;SDS011;65974;42.664;23.264;2023-04-25T06:34:45;17.80;;;11.32;;
77040;SDS011;65974;42.664;23.264;2023-04-25T06:37:11;15.02;;;10.60;;
77040;SDS011;65974;42.664;23.264;2023-04-25T06:39:36;14.07;;;10.32;;
77040;SDS011;65974;42.664;23.264;2023-04-25T06:42:02;19.98;;;12.10;;
77040;SDS011;65974;42.664;23.264;2023-04-25T06:44:27;14.98;;;9.30;;
77040;SDS011;65974;42.664;23.264;2023-04-25T06:46:54;13.80;;;10.73;;
77040;SDS011;65974;42.664;23.264;2023-04-25T06:49:20;12.40;;;9.07;;
77040;SDS011;65974;42.664;23.264;2023-04-25T06:51:45;13.60;;;9.40;;
77040;SDS011;65974;42.664;23.264;2023-04-25T06:54:10;15.05;;;9.57;;
77040;SDS011;65974;42.664;23.264;2023-04-25T06:56:36;15.05;;;7.97;;
77040;SDS011;65974;42.664;23.264;2023-04-25T06:59:01;13.05;;;8.65;;
77040;SDS011;65974;42.664;23.264;2023-04-25T07:01:27;12.25;;;9.15;;
77040;SDS011;65974;42.664;23.264;2023-04-25T07:03:52;11.82;;;7.70;;
77040;SDS011;65974;42.664;23.264;2023-04-25T07:06:18;13.32;;;8.50;;
77040;SDS011;65974;42.664;23.264;2023-04-25T07:08:43;13.80;;;9.30;;
77040;SDS011;65974;42.664;23.264;2023-04-25T07:11:08;13.73;;;9.48;;
77040;SDS011;65974;42.664;23.264;2023-04-25T07:13:34;12.63;;;9.80;;
77040;SDS011;65974;42.664;23.264;2023-04-25T07:15:59;14.20;;;9.35;;
77040;SDS011;65974;42.664;23.264;2023-04-25T07:18:25;14.82;;;9.45;;
77040;SDS011;65974;42.664;23.264;2023-04-25T07:20:50;13.95;;;10.27;;
77040;SDS011;65974;42.664;23.264;2023-04-25T07:23:16;13.15;;;9.02;;
77040;SDS011;65974;42.664;23.264;2023-04-25T07:25:41;15.73;;;10.38;;
77040;SDS011;65974;42.664;23.264;2023-04-25T07:28:07;14.63;;;9.30;;
77040;SDS011;65974;42.664;23.264;2023-04-25T07:30:32;12.70;;;9.50;;
77040;SDS011;65974;42.664;23.264;2023-04-25T07:32:59;13.90;;;9.23;;
77040;SDS011;65974;42.664;23.264;2023-04-25T07:35:25;14.02;;;9.02;;
77040;SDS011;65974;42.664;23.264;2023-04-25T07:37:50;12.10;;;7.95;;
77040;SDS011;65974;42.664;23.264;2023-04-25T07:40:16;16.63;;;9.88;;
77040;SDS011;65974;42.664;23.264;2023-04-25T07:42:41;13.63;;;8.98;;
77040;SDS011;65974;42.664;23.264;2023-04-25T07:45:07;7.85;;;6.05;;
77040;SDS011;65974;42.664;23.264;2023-04-25T07:47:34;12.55;;;9.02;;
77040;SDS011;65974;42.664;23.264;2023-04-25T07:49:59;13.50;;;8.80;;
77040;SDS011;65974;42.664;23.264;2023-04-25T07:52:25;8.80;;;6.63;;
77040;SDS011;65974;42.664;23.264;2023-04-25T07:54:51;13.80;;;9.45;;
77040;SDS011;65974;42.664;23.264;2023-04-25T07:57:16;11.90;;;8.70;;
77040;SDS011;65974;42.664;23.264;2023-04-25T07:59:43;14.55;;;8.77;;
77040;SDS011;65974;42.664;23.264;2023-04-25T08:02:08;12.88;;;8.85;;
77040;SDS011;65974;42.664;23.264;2023-04-25T08:04:34;16.67;;;9.00;;
77040;SDS011;65974;42.664;23.264;2023-04-25T08:06:59;10.73;;;7.85;;
77040;SDS011;65974;42.664;23.264;2023-04-25T08:09:25;13.30;;;8.05;;
77040;SDS011;65974;42.664;23.264;2023-04-25T08:11:50;3.92;;;3.28;;
77040;SDS011;65974;42.664;23.264;2023-04-25T08:14:16;3.67;;;3.30;;
77040;SDS011;65974;42.664;23.264;2023-04-25T08:16:41;4.18;;;2.85;;
77040;SDS011;65974;42.664;23.264;2023-04-25T08:19:07;3.75;;;2.83;;
77040;SDS011;65974;42.664;23.264;2023-04-25T08:21:33;3.97;;;3.33;;
77040;SDS011;65974;42.664;23.264;2023-04-25T08:23:58;3.65;;;3.30;;
77040;SDS011;65974;42.664;23.264;2023-04-25T08:26:24;3.38;;;2.88;;
77040;SDS011;65974;42.664;23.264;2023-04-25T08:28:50;5.38;;;2.60;;
77040;SDS011;65974;42.664;23.264;2023-04-25T08:31:16;3.17;;;2.85;;
77040;SDS011;65974;42.664;23.264;2023-04-25T08:33:42;6.45;;;2.97;;
77040;SDS011;65974;42.664;23.264;2023-04-25T08:36:08;4.85;;;4.15;;
77040;SDS011;65974;42.664;23.264;2023-04-25T08:38:33;3.40;;;3.05;;
77040;SDS011;65974;42.664;23.264;2023-04-25T08:41:00;4.38;;;2.63;;
77040;SDS011;65974;42.664;23.264;2023-04-25T08:43:28;4.60;;;3.33;;
77040;SDS011;65974;42.664;23.264;2023-04-25T08:45:54;5.85;;;3.03;;
77040;SDS011;65974;42.664;23.264;2023-04-25T08:48:24;3.45;;;2.78;;
77040;SDS011;65974;42.664;23.264;2023-04-25T08:50:53;3.58;;;2.58;;
77040;SDS011;65974;42.664;23.264;2023-04-25T08:53:30;4.35;;;2.88;;
77040;SDS011;65974;42.664;23.264;2023-04-25T08:55:58;3.45;;;3.00;;
77040;SDS011;65974;42.664;23.264;2023-04-25T08:58:27;4.20;;;2.30;;
77040;SDS011;65974;42.664;23.264;2023-04-25T09:00:53;3.58;;;2.28;;
77040;SDS011;65974;42.664;23.264;2023-04-25T09:03:19;2.60;;;2.00;;
77040;SDS011;65974;42.664;23.264;2023-04-25T09:05:45;2.92;;;2.05;;
77040;SDS011;65974;42.664;23.264;2023-04-25T09:08:11;2.58;;;2.33;;
77040;SDS011;65974;42.664;23.264;2023-04-25T09:10:37;3.70;;;3.28;;
77040;SDS011;65974;42.664;23.264;2023-04-25T09:13:04;3.20;;;2.17;;
77040;SDS011;65974;42.664;23.264;2023-04-25T09:15:31;3.58;;;2.15;;
77040;SDS011;65974;42.664;23.264;2023-04-25T09:17:57;2.25;;;1.70;;
77040;SDS011;65974;42.664;23.264;2023-04-25T09:20:26;3.25;;;1.75;;
77040;SDS011;65974;42.664;23.264;2023-04-25T09:23:01;2.90;;;1.75;;
77040;SDS011;65974;42.664;23.264;2023-04-25T09:25:28;8.43;;;2.38;;
77040;SDS011;65974;42.664;23.264;2023-04-25T09:28:00;4.57;;;1.83;;
77040;SDS011;65974;42.664;23.264;2023-04-25T09:30:30;2.67;;;1.83;;
77040;SDS011;65974;42.664;23.264;2023-04-25T09:32:56;6.03;;;2.13;;
77040;SDS011;65974;42.664;23.264;2023-04-25T09:35:24;3.10;;;1.27;;
77040;SDS011;65974;42.664;23.264;2023-04-25T09:37:51;3.13;;;2.10;;
77040;SDS011;65974;42.664;23.264;2023-04-25T09:40:17;4.95;;;3.05;;
77040;SDS011;65974;42.664;23.264;2023-04-25T09:42:43;2.83;;;1.67;;
77040;SDS011;65974;42.664;23.264;2023-04-25T09:45:08;2.03;;;1.50;;
77040;SDS011;65974;42.664;23.264;2023-04-25T09:47:38;2.85;;;1.60;;
77040;SDS011;65974;42.664;23.264;2023-04-25T09:50:04;1.88;;;1.60;;
77040;SDS011;65974;42.664;23.264;2023-04-25T09:52:39;1.92;;;1.55;;
77040;SDS011;65974;42.664;23.264;2023-04-25T09:55:04;2.90;;;1.70;;
77040;SDS011;65974;42.664;23.264;2023-04-25T09:57:30;1.75;;;1.20;;
77040;SDS011;65974;42.664;23.264;2023-04-25T09:59:56;2.20;;;1.67;;
77040;SDS011;65974;42.664;23.264;2023-04-25T10:02:25;2.15;;;1.73;;
77040;SDS011;65974;42.664;23.264;2023-04-25T10:04:53;2.17;;;1.80;;
77040;SDS011;65974;42.664;23.264;2023-04-25T10:07:24;5.53;;;2.65;;
77040;SDS011;65974;42.664;23.264;2023-04-25T10:09:54;2.55;;;1.77;;
77040;SDS011;65974;42.664;23.264;2023-04-25T10:14:51;2.30;;;1.30;;
77040;SDS011;65974;42.664;23.264;2023-04-25T10:17:17;1.98;;;1.52;;
77040;SDS011;65974;42.664;23.264;2023-04-25T10:19:49;2.60;;;2.08;;
77040;SDS011;65974;42.664;23.264;2023-04-25T10:24:53;3.95;;;1.52;;
77040;SDS011;65974;42.664;23.264;2023-04-25T10:27:21;3.90;;;1.92;;
77040;SDS011;65974;42.664;23.264;2023-04-25T10:29:52;5.43;;;1.75;;
77040;SDS011;65974;42.664;23.264;2023-04-25T10:32:25;1.70;;;1.13;;
77040;SDS011;65974;42.664;23.264;2023-04-25T10:34:51;1.80;;;1.33;;
77040;SDS011;65974;42.664;23.264;2023-04-25T10:37:17;1.75;;;1.25;;
77040;SDS011;65974;42.664;23.264;2023-04-25T10:39:44;2.40;;;1.80;;
77040;SDS011;65974;42.664;23.264;2023-04-25T10:42:11;1.92;;;1.40;;
77040;SDS011;65974;42.664;23.264;2023-04-25T10:44:37;1.65;;;1.45;;
77040;SDS011;65974;42.664;23.264;2023-04-25T10:47:07;2.92;;;1.77;;
77040;SDS011;65974;42.664;23.264;2023-04-25T10:49:37;2.45;;;1.90;;
77040;SDS011;65974;42.664;23.264;2023-04-25T10:52:10;4.10;;;1.65;;
77040;SDS011;65974;42.664;23.264;2023-04-25T10:54:44;4.53;;;1.40;;
77040;SDS011;65974;42.664;23.264;2023-04-25T11:02:55;5.68;;;2.22;;
77040;SDS011;65974;42.664;23.264;2023-04-25T11:05:29;2.10;;;1.60;;
77040;SDS011;65974;42.664;23.264;2023-04-25T11:07:57;2.67;;;1.25;;
77040;SDS011;65974;42.664;23.264;2023-04-25T11:10:29;2.20;;;0.95;;
77040;SDS011;65974;42.664;23.264;2023-04-25T11:13:00;1.77;;;1.33;;
77040;SDS011;65974;42.664;23.264;2023-04-25T11:15:26;4.63;;;1.83;;
77040;SDS011;65974;42.664;23.264;2023-04-25T11:17:53;2.83;;;1.42;;
77040;SDS011;65974;42.664;23.264;2023-04-25T11:20:19;4.53;;;1.48;;
77040;SDS011;65974;42.664;23.264;2023-04-25T11:22:45;2.40;;;1.20;;
77040;SDS011;65974;42.664;23.264;2023-04-25T11:25:13;3.10;;;1.42;;
77040;SDS011;65974;42.664;23.264;2023-04-25T11:30:17;3.17;;;1.92;;
77040;SDS011;65974;42.664;23.264;2023-04-25T11:32:44;5.50;;;2.35;;
77040;SDS011;65974;42.664;23.264;2023-04-25T11:35:10;3.55;;;2.15;;
77040;SDS011;65974;42.664;23.264;2023-04-25T11:37:36;5.40;;;2.63;;
77040;SDS011;65974;42.664;23.264;2023-04-25T11:40:04;4.85;;;2.40;;
77040;SDS011;65974;42.664;23.264;2023-04-25T11:42:37;2.25;;;1.35;;
77040;SDS011;65974;42.664;23.264;2023-04-25T11:45:10;2.45;;;1.98;;
77040;SDS011;65974;42.664;23.264;2023-04-25T11:47:36;3.60;;;1.48;;
77040;SDS011;65974;42.664;23.264;2023-04-25T11:50:05;2.20;;;1.73;;
77040;SDS011;65974;42.664;23.264;2023-04-25T11:52:45;2.67;;;1.90;;
77040;SDS011;65974;42.664;23.264;2023-04-25T11:57:43;4.63;;;2.15;;
77040;SDS011;65974;42.664;23.264;2023-04-25T12:02:36;2.85;;;2.47;;
77040;SDS011;65974;42.664;23.264;2023-04-25T12:05:02;2.03;;;1.23;;
77040;SDS011;65974;42.664;23.264;2023-04-25T12:07:31;3.15;;;1.80;;
77040;SDS011;65974;42.664;23.264;2023-04-25T12:09:56;2.72;;;1.88;;
77040;SDS011;65974;42.664;23.264;2023-04-25T12:12:26;2.10;;;1.40;;
77040;SDS011;65974;42.664;23.264;2023-04-25T12:14:52;3.30;;;2.03;;
77040;SDS011;65974;42.664;23.264;2023-04-25T12:17:20;2.65;;;1.80;;
77040;SDS011;65974;42.664;23.264;2023-04-25T12:19:46;5.65;;;1.38;;
77040;SDS011;65974;42.664;23.264;2023-04-25T12:22:21;1.65;;;1.35;;
77040;SDS011;65974;42.664;23.264;2023-04-25T12:24:48;2.22;;;1.60;;
77040;SDS011;65974;42.664;23.264;2023-04-25T12:27:15;2.17;;;1.63;;
77040;SDS011;65974;42.664;23.264;2023-04-25T12:29:49;1.75;;;1.45;;
77040;SDS011;65974;42.664;23.264;2023-04-25T12:32:16;1.23;;;0.90;;
77040;SDS011;65974;42.664;23.264;2023-04-25T12:34:42;2.88;;;2.13;;
77040;SDS011;65974;42.664;23.264;2023-04-25T12:37:08;3.00;;;1.88;;
77040;SDS011;65974;42.664;23.264;2023-04-25T12:39:34;1.67;;;1.30;;
77040;SDS011;65974;42.664;23.264;2023-04-25T12:42:00;2.35;;;1.35;;
77040;SDS011;65974;42.664;23.264;2023-04-25T12:44:25;2.10;;;0.93;;
77040;SDS011;65974;42.664;23.264;2023-04-25T12:46:51;2.22;;;1.67;;
77040;SDS011;65974;42.664;23.264;2023-04-25T12:49:18;1.48;;;0.93;;
77040;SDS011;65974;42.664;23.264;2023-04-25T12:51:43;1.45;;;1.25;;
77040;SDS011;65974;42.664;23.264;2023-04-25T12:54:09;2.05;;;1.52;;
77040;SDS011;65974;42.664;23.264;2023-04-25T12:56:35;2.88;;;1.98;;
77040;SDS011;65974;42.664;23.264;2023-04-25T12:59:01;3.45;;;1.90;;
77040;SDS011;65974;42.664;23.264;2023-04-25T13:01:28;5.13;;;2.17;;
77040;SDS011;65974;42.664;23.264;2023-04-25T13:03:54;5.22;;;2.65;;
77040;SDS011;65974;42.664;23.264;2023-04-25T13:06:20;3.30;;;2.08;;
77040;SDS011;65974;42.664;23.264;2023-04-25T13:08:45;4.18;;;2.03;;
77040;SDS011;65974;42.664;23.264;2023-04-25T13:11:11;4.10;;;2.67;;
77040;SDS011;65974;42.664;23.264;2023-04-25T13:13:37;5.10;;;3.10;;
77040;SDS011;65974;42.664;23.264;2023-04-25T13:16:03;4.65;;;3.00;;
77040;SDS011;65974;42.664;23.264;2023-04-25T13:18:32;8.15;;;3.33;;
77040;SDS011;65974;42.664;23.264;2023-04-25T13:20:59;4.38;;;2.35;;
77040;SDS011;65974;42.664;23.264;2023-04-25T13:23:25;6.93;;;3.30;;
77040;SDS011;65974;42.664;23.264;2023-04-25T13:25:52;6.22;;;3.03;;
77040;SDS011;65974;42.664;23.264;2023-04-25T13:28:19;8.25;;;4.63;;
77040;SDS011;65974;42.664;23.264;2023-04-25T13:30:45;5.32;;;3.88;;
77040;SDS011;65974;42.664;23.264;2023-04-25T13:33:12;5.10;;;3.10;;
77040;SDS011;65974;42.664;23.264;2023-04-25T13:35:37;6.00;;;4.25;;
77040;SDS011;65974;42.664;23.264;2023-04-25T13:38:03;4.43;;;3.08;;
77040;SDS011;65974;42.664;23.264;2023-04-25T13:40:29;2.67;;;2.22;;
77040;SDS011;65974;42.664;23.264;2023-04-25T13:42:55;3.05;;;2.58;;
77040;SDS011;65974;42.664;23.264;2023-04-25T13:45:21;3.50;;;2.47;;
77040;SDS011;65974;42.664;23.264;2023-04-25T13:47:46;2.95;;;2.08;;
77040;SDS011;65974;42.664;23.264;2023-04-25T13:50:12;2.85;;;2.05;;
77040;SDS011;65974;42.664;23.264;2023-04-25T13:52:38;2.63;;;1.60;;
77040;SDS011;65974;42.664;23.264;2023-04-25T13:55:05;6.55;;;2.13;;
77040;SDS011;65974;42.664;23.264;2023-04-25T13:57:32;3.78;;;2.55;;
77040;SDS011;65974;42.664;23.264;2023-04-25T13:59:58;4.53;;;2.92;;
77040;SDS011;65974;42.664;23.264;2023-04-25T14:02:24;4.03;;;3.58;;
77040;SDS011;65974;42.664;23.264;2023-04-25T14:04:49;4.43;;;2.13;;
77040;SDS011;65974;42.664;23.264;2023-04-25T14:07:15;3.97;;;2.63;;
77040;SDS011;65974;42.664;23.264;2023-04-25T14:09:44;2.28;;;2.08;;
77040;SDS011;65974;42.664;23.264;2023-04-25T14:12:09;3.03;;;1.90;;
77040;SDS011;65974;42.664;23.264;2023-04-25T14:14:36;2.30;;;1.65;;
77040;SDS011;65974;42.664;23.264;2023-04-25T14:17:01;2.78;;;1.90;;
77040;SDS011;65974;42.664;23.264;2023-04-25T14:19:27;4.13;;;1.98;;
77040;SDS011;65974;42.664;23.264;2023-04-25T14:21:53;2.50;;;1.63;;
77040;SDS011;65974;42.664;23.264;2023-04-25T14:24:19;5.38;;;2.17;;
77040;SDS011;65974;42.664;23.264;2023-04-25T14:26:44;3.58;;;2.53;;
77040;SDS011;65974;42.664;23.264;2023-04-25T14:29:10;4.20;;;2.45;;
77040;SDS011;65974;42.664;23.264;2023-04-25T14:31:36;6.90;;;2.45;;
77040;SDS011;65974;42.664;23.264;2023-04-25T14:34:04;3.10;;;2.30;;
77040;SDS011;65974;42.664;23.264;2023-04-25T14:36:32;2.47;;;1.60;;
77040;SDS011;65974;42.664;23.264;2023-04-25T14:38:58;2.50;;;1.95;;
77040;SDS011;65974;42.664;23.264;2023-04-25T14:41:24;3.70;;;2.55;;
77040;SDS011;65974;42.664;23.264;2023-04-25T14:43:50;3.70;;;2.72;;